Time;durP1;ratioP1;P1;durP2;ratioP2;P2;SDS_P1;SDS_P2;PMS_P1;PMS_P2;Temp;Humidity;BMP_temperature;BMP_pressure;BME280_temperature;BME280_humidity;BME280_pressure;Samples;Min_cycle;Max_cycle;Signal;HPM_P1;HPM_P2
2023/07/26 00:01:36;;;;;;;5.03;2.10;;;13.40;99.90;;;;;;4975677;28;20548;-48
2023/07/26 00:04:02;;;;;;;5.10;2.20;;;13.30;99.90;;;;;;4973460;28;20047;-49
2023/07/26 00:06:30;;;;;;;3.17;2.00;;;13.30;99.90;;;;;;4955635;28;20500;-47
2023/07/26 00:08:56;;;;;;;7.63;2.65;;;13.30;99.90;;;;;;4956769;28;20596;-48
2023/07/26 00:11:22;;;;;;;4.18;2.15;;;13.40;99.90;;;;;;4958813;28;20050;-48
2023/07/26 00:13:48;;;;;;;2.42;2.00;;;13.30;99.90;;;;;;4973410;28;20038;-48
2023/07/26 00:16:13;;;;;;;3.97;2.22;;;13.30;99.90;;;;;;4975719;28;20074;-49
2023/07/26 00:18:40;;;;;;;4.05;2.13;;;13.30;99.90;;;;;;4974957;28;20044;-49
2023/07/26 00:21:08;;;;;;;4.07;1.90;;;13.30;99.90;;;;;;4975284;28;20038;-49
2023/07/26 00:23:34;;;;;;;5.57;2.00;;;13.30;99.90;;;;;;4972638;28;20056;-50
2023/07/26 00:26:00;;;;;;;5.15;2.42;;;13.30;99.90;;;;;;4977565;28;20465;-52
2023/07/26 00:28:26;;;;;;;4.40;2.13;;;13.30;99.90;;;;;;4988317;28;20134;-48
2023/07/26 00:30:52;;;;;;;5.90;2.00;;;13.20;99.90;;;;;;4973634;28;20102;-49
2023/07/26 00:33:18;;;;;;;4.63;2.10;;;13.20;99.90;;;;;;4971234;28;20035;-48
2023/07/26 00:35:44;;;;;;;2.72;2.13;;;13.30;99.90;;;;;;4973849;28;20105;-48
2023/07/26 00:38:10;;;;;;;7.05;2.60;;;13.20;99.90;;;;;;4959295;28;20493;-48
2023/07/26 00:40:39;;;;;;;9.73;2.20;;;13.20;99.90;;;;;;4971401;28;20041;-48
2023/07/26 00:43:05;;;;;;;5.35;2.58;;;13.20;99.90;;;;;;4972321;28;20067;-49
2023/07/26 00:45:33;;;;;;;9.20;2.40;;;13.20;99.90;;;;;;4972380;28;20043;-48
2023/07/26 00:47:59;;;;;;;2.95;2.15;;;13.20;99.90;;;;;;4971335;28;20172;-48
2023/07/26 00:50:26;;;;;;;4.70;2.40;;;13.20;99.90;;;;;;4970122;28;20452;-47
2023/07/26 00:52:52;;;;;;;5.45;2.33;;;13.20;99.90;;;;;;4968513;28;20062;-49
2023/07/26 00:55:18;;;;;;;5.07;2.50;;;13.20;99.90;;;;;;4963310;28;20084;-48
2023/07/26 00:57:46;;;;;;;5.35;2.40;;;13.20;99.90;;;;;;4970205;28;20054;-47
2023/07/26 01:00:13;;;;;;;4.88;2.35;;;13.30;99.90;;;;;;4968733;28;20179;-49
2023/07/26 01:02:38;;;;;;;4.10;2.38;;;13.30;99.90;;;;;;4965065;28;20589;-49
2023/07/26 01:05:05;;;;;;;3.75;2.15;;;13.30;99.90;;;;;;4969539;28;20081;-48
2023/07/26 01:07:53;;;;;;;3.85;2.47;;;13.20;99.90;;;;;;4966386;28;20427;-51
2023/07/26 01:10:28;;;;;;;4.40;2.53;;;13.30;99.90;;;;;;4970925;28;20078;-49
2023/07/26 01:13:01;;;;;;;4.88;2.67;;;13.20;99.90;;;;;;4968960;28;20441;-48
2023/07/26 01:15:34;;;;;;;4.72;2.70;;;13.20;99.90;;;;;;4966372;28;20049;-48
2023/07/26 01:18:09;;;;;;;;;;;13.20;99.90;;;;;;4966862;28;20519;-49
2023/07/26 01:20:35;;;;;;;5.88;2.50;;;13.20;99.90;;;;;;4967165;28;20016;-48
2023/07/26 01:23:00;;;;;;;3.97;2.97;;;13.20;99.90;;;;;;4949582;28;20065;-48
2023/07/26 01:25:26;;;;;;;6.25;2.88;;;13.20;99.90;;;;;;4955609;28;20054;-48
2023/07/26 01:27:52;;;;;;;3.67;2.45;;;13.20;99.90;;;;;;4948398;28;20050;-49
2023/07/26 01:30:18;;;;;;;7.15;2.60;;;13.20;99.90;;;;;;4964575;28;20038;-48
2023/07/26 01:32:47;;;;;;;4.65;2.40;;;13.20;99.90;;;;;;4967318;28;20505;-49
2023/07/26 01:35:14;;;;;;;3.00;2.47;;;13.20;99.90;;;;;;4946639;28;20077;-48
2023/07/26 01:37:41;;;;;;;7.32;2.67;;;13.20;99.90;;;;;;4961017;28;20145;-49
2023/07/26 01:40:08;;;;;;;5.28;2.60;;;13.20;99.90;;;;;;4962326;28;20051;-48
2023/07/26 01:42:34;;;;;;;4.55;2.58;;;13.10;99.90;;;;;;4963416;28;20085;-49
2023/07/26 01:45:04;;;;;;;6.35;2.22;;;13.10;99.90;;;;;;4964866;28;20053;-48
2023/07/26 01:47:30;;;;;;;5.93;2.53;;;13.10;99.90;;;;;;4945687;28;20046;-48
2023/07/26 01:49:56;;;;;;;4.25;2.47;;;13.10;99.90;;;;;;4964911;28;20065;-48
2023/07/26 01:52:23;;;;;;;4.75;2.42;;;13.10;99.90;;;;;;4964504;28;20125;-49
2023/07/26 01:54:49;;;;;;;4.80;2.17;;;13.00;99.90;;;;;;4965501;28;20078;-48
2023/07/26 01:57:15;;;;;;;4.78;2.40;;;13.00;99.90;;;;;;4953428;28;20180;-51
2023/07/26 01:59:40;;;;;;;4.32;2.30;;;13.00;99.90;;;;;;4963317;28;20057;-52
2023/07/26 02:02:06;;;;;;;5.72;2.53;;;13.00;99.90;;;;;;4961666;28;20088;-48
2023/07/26 02:04:32;;;;;;;6.13;2.90;;;13.00;99.90;;;;;;4955043;28;20039;-49
2023/07/26 02:06:57;;;;;;;4.88;2.63;;;12.90;99.90;;;;;;4963101;28;20330;-48
2023/07/26 02:09:23;;;;;;;6.57;2.60;;;12.90;99.90;;;;;;4962949;28;20046;-52
2023/07/26 02:11:49;;;;;;;4.88;2.65;;;12.80;99.90;;;;;;4965386;28;20046;-48
2023/07/26 02:14:16;;;;;;;5.28;3.00;;;12.80;99.90;;;;;;4961490;28;20054;-48
2023/07/26 02:16:42;;;;;;;7.82;2.58;;;12.80;99.90;;;;;;4962167;28;20077;-47
2023/07/26 02:19:07;;;;;;;3.08;2.50;;;12.80;99.90;;;;;;4968287;28;20049;-48
2023/07/26 02:21:33;;;;;;;6.45;2.90;;;12.70;99.90;;;;;;4963931;28;20599;-49
2023/07/26 02:23:59;;;;;;;4.88;2.80;;;12.70;99.90;;;;;;4969684;28;20058;-47
2023/07/26 02:26:25;;;;;;;4.20;2.60;;;12.70;99.90;;;;;;4961000;28;20054;-50
2023/07/26 02:28:50;;;;;;;4.15;2.83;;;12.60;99.90;;;;;;4965526;28;20090;-49
2023/07/26 02:31:17;;;;;;;5.07;3.10;;;12.60;99.90;;;;;;4941184;28;20133;-48
2023/07/26 02:33:43;;;;;;;4.72;2.88;;;12.60;99.90;;;;;;4966388;28;20324;-49
2023/07/26 02:36:09;;;;;;;6.45;2.97;;;12.50;99.90;;;;;;4970308;28;20116;-48
2023/07/26 02:38:35;;;;;;;4.95;2.63;;;12.50;99.90;;;;;;4962139;28;20412;-48
2023/07/26 02:41:00;;;;;;;8.35;3.22;;;12.50;99.90;;;;;;4963323;28;20098;-50
2023/07/26 02:43:26;;;;;;;6.40;2.90;;;12.40;99.90;;;;;;4952578;28;20045;-50
2023/07/26 02:45:52;;;;;;;4.82;3.00;;;12.40;99.90;;;;;;4947077;28;20066;-48
2023/07/26 02:48:17;;;;;;;4.75;2.70;;;12.40;99.90;;;;;;4966398;28;20648;-48
2023/07/26 02:50:43;;;;;;;6.40;2.60;;;12.40;99.90;;;;;;4969451;28;20062;-49
2023/07/26 02:53:09;;;;;;;5.68;3.20;;;12.40;99.90;;;;;;4968629;28;20037;-48
2023/07/26 02:55:34;;;;;;;5.30;3.05;;;12.40;99.90;;;;;;4969164;28;20049;-49
2023/07/26 02:58:01;;;;;;;6.43;2.72;;;12.40;99.90;;;;;;4969007;28;20065;-48
2023/07/26 03:00:27;;;;;;;10.73;3.10;;;12.40;99.90;;;;;;4956341;28;20815;-48
2023/07/26 03:02:52;;;;;;;7.10;2.83;;;12.30;99.90;;;;;;4964524;28;20037;-48
2023/07/26 03:05:18;;;;;;;6.22;3.00;;;12.30;99.90;;;;;;4957025;28;20049;-49
2023/07/26 03:07:44;;;;;;;6.10;3.22;;;12.20;99.90;;;;;;4967706;28;20038;-49
2023/07/26 03:10:09;;;;;;;5.28;3.10;;;12.20;99.90;;;;;;4963709;28;20401;-50
2023/07/26 03:12:35;;;;;;;5.25;3.10;;;12.20;99.90;;;;;;4961889;28;20038;-47
2023/07/26 03:15:01;;;;;;;7.03;3.15;;;12.20;99.90;;;;;;4970659;28;20504;-48
2023/07/26 03:17:26;;;;;;;6.97;3.53;;;12.10;99.90;;;;;;4953912;28;20038;-48
2023/07/26 03:19:52;;;;;;;5.97;3.30;;;12.10;99.90;;;;;;4947212;28;20104;-48
2023/07/26 03:22:18;;;;;;;6.95;3.20;;;12.10;99.90;;;;;;4945059;28;20046;-48
2023/07/26 03:24:44;;;;;;;7.15;2.88;;;12.10;99.90;;;;;;4965457;28;20073;-48
2023/07/26 03:27:09;;;;;;;6.90;3.30;;;12.10;99.90;;;;;;4951322;28;20053;-49
2023/07/26 03:29:35;;;;;;;4.00;3.25;;;12.10;99.90;;;;;;4965207;28;20054;-48
2023/07/26 03:32:01;;;;;;;4.55;3.15;;;12.10;99.90;;;;;;4965593;28;20060;-50
2023/07/26 03:34:26;;;;;;;6.28;3.35;;;12.20;99.90;;;;;;4951281;28;20049;-49
2023/07/26 03:36:52;;;;;;;7.32;3.80;;;12.20;99.90;;;;;;4962838;28;20037;-52
2023/07/26 03:39:18;;;;;;;14.48;3.47;;;12.20;99.90;;;;;;4968631;28;20050;-49
2023/07/26 03:41:44;;;;;;;4.30;3.17;;;12.20;99.90;;;;;;4964019;28;20066;-48
2023/07/26 03:44:09;;;;;;;9.82;3.67;;;12.20;99.90;;;;;;4963261;28;20386;-49
2023/07/26 03:46:35;;;;;;;7.35;3.55;;;12.30;99.90;;;;;;4961524;28;20224;-50
2023/07/26 03:49:01;;;;;;;6.63;3.40;;;12.30;99.90;;;;;;4962448;28;20116;-48
2023/07/26 03:51:26;;;;;;;5.40;3.70;;;12.30;99.90;;;;;;4964230;28;20381;-51
2023/07/26 03:53:52;;;;;;;6.32;3.13;;;12.30;99.90;;;;;;4963175;28;20042;-49
2023/07/26 03:56:18;;;;;;;6.35;3.38;;;12.40;99.90;;;;;;4966023;28;20097;-48
2023/07/26 03:58:43;;;;;;;6.38;3.47;;;12.40;99.90;;;;;;4964129;28;20069;-48
2023/07/26 04:01:09;;;;;;;9.25;3.90;;;12.40;99.90;;;;;;4959644;28;20924;-48
2023/07/26 04:03:35;;;;;;;6.93;3.70;;;12.40;99.90;;;;;;4928923;28;20089;-48
2023/07/26 04:06:00;;;;;;;6.15;3.40;;;12.50;99.90;;;;;;4965066;28;20042;-48
2023/07/26 04:08:26;;;;;;;7.60;3.45;;;12.50;99.90;;;;;;4963837;28;20575;-49
2023/07/26 04:10:52;;;;;;;6.35;3.35;;;12.50;99.90;;;;;;4963078;28;20043;-49
2023/07/26 04:13:18;;;;;;;6.15;3.80;;;12.50;99.90;;;;;;4964001;28;20042;-48
2023/07/26 04:15:43;;;;;;;6.13;3.00;;;12.50;99.90;;;;;;4949766;28;20042;-48
2023/07/26 04:18:09;;;;;;;5.90;3.30;;;12.50;99.90;;;;;;4966538;28;20042;-49
2023/07/26 04:20:35;;;;;;;7.88;3.50;;;12.50;99.90;;;;;;4959630;28;20641;-50
2023/07/26 04:23:00;;;;;;;8.77;3.50;;;12.50;99.90;;;;;;4952359;28;20058;-47
2023/07/26 04:25:26;;;;;;;5.32;3.28;;;12.50;99.90;;;;;;4961735;28;20054;-48
2023/07/26 04:27:52;;;;;;;7.13;3.53;;;12.50;99.90;;;;;;4963418;28;22047;-48
2023/07/26 04:30:18;;;;;;;8.75;3.30;;;12.50;99.90;;;;;;4961700;28;20106;-51
2023/07/26 04:32:43;;;;;;;7.82;3.28;;;12.50;99.90;;;;;;4964554;28;20052;-50
2023/07/26 04:35:09;;;;;;;5.63;3.53;;;12.50;99.90;;;;;;4961682;28;20113;-48
2023/07/26 04:37:35;;;;;;;7.45;3.22;;;12.50;99.90;;;;;;4945006;28;20463;-48
2023/07/26 04:40:00;;;;;;;6.22;3.30;;;12.50;99.90;;;;;;4960814;28;20054;-49
2023/07/26 04:42:26;;;;;;;5.20;3.45;;;12.50;99.90;;;;;;4965683;28;20054;-48
2023/07/26 04:44:52;;;;;;;6.85;3.33;;;12.40;99.90;;;;;;4966650;28;20050;-48
2023/07/26 04:47:22;;;;;;;6.10;3.90;;;12.40;99.90;;;;;;4962110;28;20373;-48
2023/07/26 04:49:48;;;;;;;7.13;3.58;;;12.40;99.90;;;;;;4960174;28;20086;-49
2023/07/26 04:52:13;;;;;;;6.78;3.63;;;12.50;99.90;;;;;;4965713;28;20125;-49
2023/07/26 04:54:39;;;;;;;7.82;4.35;;;12.50;99.90;;;;;;4937924;28;20077;-50
2023/07/26 04:57:05;;;;;;;9.15;4.50;;;12.50;99.90;;;;;;4953507;28;20074;-50
2023/07/26 04:59:30;;;;;;;7.90;4.00;;;12.50;99.90;;;;;;4964367;28;20120;-48
2023/07/26 05:01:56;;;;;;;6.68;3.85;;;12.50;99.90;;;;;;4961290;28;20046;-48
2023/07/26 05:04:22;;;;;;;5.82;3.83;;;12.50;99.90;;;;;;4963945;28;20065;-49
2023/07/26 05:06:48;;;;;;;7.55;4.00;;;12.60;99.90;;;;;;4963729;28;20038;-49
2023/07/26 05:09:13;;;;;;;6.25;4.60;;;12.70;99.90;;;;;;4968489;28;20050;-49
2023/07/26 05:11:39;;;;;;;10.18;4.40;;;12.70;99.90;;;;;;4960541;28;20044;-50
2023/07/26 05:14:05;;;;;;;6.80;4.53;;;12.80;99.90;;;;;;4931662;28;20050;-51
2023/07/26 05:16:31;;;;;;;9.82;4.20;;;12.90;99.90;;;;;;4964536;28;20047;-51
2023/07/26 05:18:57;;;;;;;5.47;4.00;;;13.00;99.90;;;;;;4923929;28;20066;-48
2023/07/26 05:21:25;;;;;;;7.30;4.07;;;13.10;99.90;;;;;;4965610;28;20074;-48
2023/07/26 05:23:51;;;;;;;6.15;4.00;;;13.20;99.90;;;;;;4962903;28;20835;-48
2023/07/26 05:26:16;;;;;;;6.05;3.78;;;13.30;99.90;;;;;;4961216;28;20136;-49
2023/07/26 05:28:42;;;;;;;6.30;3.67;;;13.40;99.90;;;;;;4946558;28;20076;-49
2023/07/26 05:31:08;;;;;;;11.52;4.45;;;13.50;99.90;;;;;;4963718;28;20484;-51
2023/07/26 05:33:34;;;;;;;5.80;3.33;;;13.70;99.90;;;;;;4963758;28;20043;-49
2023/07/26 05:35:59;;;;;;;5.90;3.22;;;13.70;99.90;;;;;;4959815;28;20043;-47
2023/07/26 05:38:25;;;;;;;6.13;3.30;;;13.80;99.90;;;;;;4957909;28;20042;-49
2023/07/26 05:40:51;;;;;;;6.53;3.05;;;13.90;99.90;;;;;;4954889;28;20069;-48
2023/07/26 05:43:19;;;;;;;5.00;3.20;;;13.90;99.90;;;;;;4962041;28;20057;-48
2023/07/26 05:45:45;;;;;;;5.40;2.90;;;13.90;99.90;;;;;;4963087;28;23154;-50
2023/07/26 05:48:11;;;;;;;5.63;2.95;;;13.90;99.90;;;;;;4963628;28;20099;-49
2023/07/26 05:50:36;;;;;;;5.95;2.70;;;13.90;99.90;;;;;;4963469;28;20035;-48
2023/07/26 05:53:02;;;;;;;5.40;2.90;;;13.90;99.90;;;;;;4959038;28;20042;-49
2023/07/26 05:55:28;;;;;;;4.93;2.78;;;13.90;99.90;;;;;;4969617;28;20066;-48
2023/07/26 05:57:54;;;;;;;4.65;2.55;;;13.90;99.90;;;;;;4970754;28;20050;-50
2023/07/26 06:00:19;;;;;;;4.78;2.80;;;13.90;99.90;;;;;;4956226;28;20440;-48
2023/07/26 06:02:45;;;;;;;5.60;2.75;;;13.90;99.90;;;;;;4968284;28;20508;-49
2023/07/26 06:05:11;;;;;;;6.45;3.08;;;13.90;99.90;;;;;;4963328;28;20121;-48
2023/07/26 06:07:37;;;;;;;3.70;2.45;;;13.80;99.90;;;;;;4960763;28;20046;-51
2023/07/26 06:10:03;;;;;;;6.72;2.40;;;13.80;99.90;;;;;;4958685;28;20086;-48
2023/07/26 06:12:29;;;;;;;4.50;2.15;;;13.80;99.90;;;;;;4965035;28;20050;-47
2023/07/26 06:14:55;;;;;;;4.72;2.22;;;13.80;99.90;;;;;;4969200;28;20045;-48
2023/07/26 06:17:21;;;;;;;3.70;2.30;;;13.80;99.90;;;;;;4969904;28;20138;-48
2023/07/26 06:19:47;;;;;;;4.72;2.22;;;13.80;99.90;;;;;;4943462;28;20521;-48
2023/07/26 06:22:13;;;;;;;3.70;2.05;;;13.70;99.90;;;;;;4969282;28;20069;-47
2023/07/26 06:24:39;;;;;;;2.70;1.98;;;13.70;99.90;;;;;;4971335;28;20050;-48
2023/07/26 06:27:05;;;;;;;4.05;2.47;;;13.80;99.90;;;;;;4969226;28;20047;-49
2023/07/26 06:29:30;;;;;;;4.22;2.30;;;13.80;99.90;;;;;;4970198;28;20208;-50
2023/07/26 06:31:56;;;;;;;5.65;2.20;;;13.90;99.90;;;;;;4942655;28;20034;-48
2023/07/26 06:34:22;;;;;;;3.83;2.22;;;14.00;99.90;;;;;;4971521;28;20058;-49
2023/07/26 06:36:48;;;;;;;5.47;2.58;;;14.10;99.90;;;;;;4969825;28;20536;-51
2023/07/26 06:39:14;;;;;;;6.57;2.47;;;14.30;99.90;;;;;;4968258;28;20459;-50
2023/07/26 06:41:39;;;;;;;5.38;2.35;;;14.40;99.90;;;;;;4940843;28;20058;-50
2023/07/26 06:44:05;;;;;;;5.85;2.50;;;14.50;99.90;;;;;;4968020;28;20464;-48
2023/07/26 06:46:33;;;;;;;3.17;2.03;;;14.60;99.90;;;;;;4951105;28;20362;-50
2023/07/26 06:49:01;;;;;;;4.03;2.00;;;14.70;99.90;;;;;;4972379;28;20046;-50
2023/07/26 06:51:27;;;;;;;3.13;2.05;;;14.80;99.90;;;;;;4967919;28;20775;-48
2023/07/26 06:53:52;;;;;;;3.33;2.30;;;14.90;99.90;;;;;;4967688;28;20313;-50
2023/07/26 06:56:18;;;;;;;3.47;2.00;;;15.00;99.90;;;;;;4968923;28;20097;-49
2023/07/26 06:58:44;;;;;;;4.53;1.90;;;15.10;99.90;;;;;;4967130;28;20053;-51
2023/07/26 07:01:17;;;;;;;5.22;2.20;;;15.20;99.90;;;;;;4971069;28;20092;-49
2023/07/26 07:03:43;;;;;;;2.78;2.00;;;15.30;99.90;;;;;;4971569;28;20050;-48
2023/07/26 07:06:09;;;;;;;2.78;1.98;;;15.30;99.90;;;;;;4967053;28;20035;-51
2023/07/26 07:08:34;;;;;;;3.83;2.00;;;15.40;99.90;;;;;;4968399;28;20058;-50
2023/07/26 07:11:00;;;;;;;4.15;1.95;;;15.50;99.90;;;;;;4954165;28;20038;-53
2023/07/26 07:13:26;;;;;;;2.90;2.20;;;15.50;99.90;;;;;;4968527;28;20038;-52
2023/07/26 07:15:51;;;;;;;3.38;2.28;;;15.50;99.90;;;;;;4970389;28;20516;-53
2023/07/26 07:18:17;;;;;;;3.60;2.10;;;15.40;99.90;;;;;;4968965;28;20344;-50
2023/07/26 07:20:43;;;;;;;3.72;2.08;;;15.40;99.90;;;;;;4951183;28;20129;-52
2023/07/26 07:23:09;;;;;;;3.28;1.95;;;15.30;99.90;;;;;;4958390;28;20213;-49
2023/07/26 07:25:40;;;;;;;5.18;2.40;;;15.30;99.90;;;;;;4956750;28;20046;-49
2023/07/26 07:28:05;;;;;;;5.60;2.72;;;15.30;99.90;;;;;;4969523;28;20054;-49
2023/07/26 07:30:32;;;;;;;3.40;2.10;;;15.40;99.90;;;;;;4969347;28;20569;-49
2023/07/26 07:32:58;;;;;;;3.17;2.20;;;15.50;99.90;;;;;;4968382;28;20461;-52
2023/07/26 07:35:23;;;;;;;3.38;2.00;;;15.70;99.90;;;;;;4966786;28;20050;-51
2023/07/26 07:37:49;;;;;;;3.60;1.90;;;15.80;99.90;;;;;;4934836;28;20046;-48
2023/07/26 07:40:15;;;;;;;4.82;1.70;;;16.00;99.90;;;;;;4970807;28;20429;-49
2023/07/26 07:42:41;;;;;;;3.53;1.95;;;16.10;99.90;;;;;;4967778;28;20043;-52
2023/07/26 07:45:07;;;;;;;2.58;1.77;;;16.20;99.90;;;;;;4934416;28;20038;-49
2023/07/26 07:47:33;;;;;;;3.58;1.63;;;16.30;99.90;;;;;;4967041;28;20046;-49
2023/07/26 07:49:58;;;;;;;3.30;1.83;;;16.30;99.90;;;;;;4950683;28;20049;-50
2023/07/26 07:52:24;;;;;;;4.60;1.70;;;16.40;99.90;;;;;;4966502;28;20428;-50
2023/07/26 07:54:50;;;;;;;2.20;1.90;;;16.40;99.90;;;;;;4952414;28;20038;-48
2023/07/26 07:57:17;;;;;;;4.40;1.85;;;16.50;99.90;;;;;;4969646;28;20575;-49
2023/07/26 07:59:43;;;;;;;5.55;1.67;;;16.50;99.90;;;;;;4968045;28;20050;-49
2023/07/26 08:02:09;;;;;;;1.55;1.20;;;16.50;99.90;;;;;;4969692;28;20060;-48
2023/07/26 08:04:38;;;;;;;1.45;0.90;;;16.60;99.90;;;;;;4966920;28;20144;-51
2023/07/26 08:07:05;;;;;;;2.05;1.27;;;16.60;99.90;;;;;;4967904;28;20064;-49
2023/07/26 08:09:30;;;;;;;2.15;1.40;;;16.60;99.90;;;;;;4967359;28;20070;-48
2023/07/26 08:11:56;;;;;;;1.60;1.25;;;16.60;99.90;;;;;;4968801;28;20121;-50
2023/07/26 08:14:22;;;;;;;1.70;1.20;;;16.70;99.90;;;;;;4965835;28;20053;-49
2023/07/26 08:16:48;;;;;;;2.30;1.42;;;16.70;99.90;;;;;;4953811;28;20077;-48
2023/07/26 08:19:14;;;;;;;2.80;1.80;;;16.80;99.90;;;;;;4970434;28;20473;-48
2023/07/26 08:21:39;;;;;;;2.78;1.75;;;16.90;99.90;;;;;;4967487;28;20137;-49
2023/07/26 08:24:05;;;;;;;3.13;1.80;;;17.10;99.90;;;;;;4969797;28;20066;-48
2023/07/26 08:26:31;;;;;;;3.95;2.00;;;17.20;99.90;;;;;;4966945;28;20520;-48
2023/07/26 08:28:57;;;;;;;3.70;1.77;;;17.30;99.90;;;;;;4959769;28;20046;-48
2023/07/26 08:31:22;;;;;;;3.30;1.90;;;17.40;99.90;;;;;;4969080;28;20049;-49
2023/07/26 08:33:48;;;;;;;3.00;1.63;;;17.50;99.90;;;;;;4967290;28;20038;-48
2023/07/26 08:36:14;;;;;;;2.58;1.60;;;17.60;99.90;;;;;;4966838;28;20862;-48
2023/07/26 08:38:40;;;;;;;1.98;1.50;;;17.70;99.90;;;;;;4968146;28;20046;-49
2023/07/26 08:41:07;;;;;;;2.58;1.60;;;17.80;99.90;;;;;;4964750;28;20044;-48
2023/07/26 08:43:39;;;;;;;2.22;1.40;;;18.00;99.90;;;;;;4971035;28;20083;-48
2023/07/26 08:46:07;;;;;;;2.00;1.65;;;18.10;99.90;;;;;;4968149;28;20037;-48
2023/07/26 08:48:35;;;;;;;2.80;1.60;;;18.20;99.90;;;;;;4967856;28;20050;-49
2023/07/26 08:51:01;;;;;;;3.42;1.88;;;18.40;99.90;;;;;;4964024;28;20050;-49
2023/07/26 08:53:28;;;;;;;2.08;1.60;;;18.50;99.90;;;;;;4965938;28;20030;-48
2023/07/26 08:55:54;;;;;;;2.13;1.92;;;18.50;99.90;;;;;;4967083;28;20054;-48
2023/07/26 08:58:20;;;;;;;2.65;2.08;;;18.50;99.90;;;;;;4968915;28;20160;-49
2023/07/26 09:00:46;;;;;;;3.38;2.05;;;18.50;99.90;;;;;;4981691;28;20133;-50
2023/07/26 09:03:13;;;;;;;3.00;2.15;;;18.60;99.90;;;;;;4965980;28;20410;-48
2023/07/26 09:05:39;;;;;;;2.88;1.70;;;18.70;99.90;;;;;;4966343;28;20264;-49
2023/07/26 09:08:05;;;;;;;4.38;2.00;;;18.70;99.90;;;;;;4945019;28;20043;-49
2023/07/26 09:10:31;;;;;;;4.47;2.28;;;18.80;99.90;;;;;;4968439;28;20049;-48
2023/07/26 09:13:11;;;;;;;4.80;2.55;;;18.90;99.90;;;;;;4950246;28;20560;-48
2023/07/26 09:15:40;;;;;;;3.67;2.17;;;18.90;99.90;;;;;;4951213;28;20072;-49
2023/07/26 09:18:06;;;;;;;3.90;2.50;;;19.00;99.90;;;;;;4964057;28;20050;-48
2023/07/26 09:20:33;;;;;;;4.10;2.58;;;19.00;99.90;;;;;;4968121;28;20050;-48
2023/07/26 09:23:06;;;;;;;2.92;2.10;;;18.90;99.90;;;;;;4961655;28;20089;-50
2023/07/26 09:25:35;;;;;;;3.30;2.20;;;18.90;99.90;;;;;;4965639;28;20476;-49
2023/07/26 09:28:02;;;;;;;4.43;2.70;;;18.80;99.90;;;;;;4937392;28;20452;-50
2023/07/26 09:30:28;;;;;;;3.97;2.55;;;18.80;99.90;;;;;;4956344;28;20352;-49
2023/07/26 09:32:56;;;;;;;3.65;2.33;;;18.90;99.90;;;;;;4965940;28;20070;-50
2023/07/26 09:35:22;;;;;;;3.70;2.25;;;19.00;99.90;;;;;;4966914;28;20050;-51
2023/07/26 09:37:48;;;;;;;6.22;2.63;;;19.10;99.90;;;;;;4954614;28;20039;-48
2023/07/26 09:40:14;;;;;;;6.05;2.30;;;19.30;99.90;;;;;;4969076;28;20120;-50
2023/07/26 09:42:47;;;;;;;2.75;2.00;;;19.40;99.90;;;;;;4963250;28;20043;-51
2023/07/26 09:45:20;;;;;;;4.10;2.65;;;19.60;99.90;;;;;;4964063;28;20038;-50
2023/07/26 09:47:46;;;;;;;3.92;2.70;;;19.70;99.90;;;;;;4963325;28;20046;-48
2023/07/26 09:50:29;;;;;;;2.95;2.40;;;19.90;99.90;;;;;;4967231;28;20118;-49
2023/07/26 09:52:58;;;;;;;;;;;20.00;99.90;;;;;;4949601;28;20050;-50
2023/07/26 09:55:26;;;;;;;4.55;2.60;;;20.00;99.90;;;;;;4967019;28;19928;-49
2023/07/26 09:57:53;;;;;;;4.50;2.45;;;19.90;99.90;;;;;;4968083;28;20031;-48
2023/07/26 10:00:21;;;;;;;4.70;2.78;;;20.00;99.90;;;;;;4950526;28;20053;-50
2023/07/26 10:03:01;;;;;;;2.55;1.90;;;20.10;99.90;;;;;;4965831;28;20129;-50
2023/07/26 10:05:33;;;;;;;1.70;1.40;;;20.10;99.90;;;;;;4966961;28;20045;-49
2023/07/26 10:07:59;;;;;;;1.98;1.50;;;19.90;99.90;;;;;;4964148;28;20072;-48
2023/07/26 10:10:26;;;;;;;3.03;1.80;;;19.70;99.90;;;;;;4966886;28;20149;-50
2023/07/26 10:12:53;;;;;;;5.60;2.03;;;19.60;99.90;;;;;;4965301;28;20449;-49
2023/07/26 10:15:22;;;;;;;2.83;2.00;;;19.50;99.90;;;;;;4964629;28;20046;-50
2023/07/26 10:17:52;;;;;;;2.20;1.80;;;19.40;99.90;;;;;;4963380;28;20038;-49
2023/07/26 10:20:17;;;;;;;2.30;1.80;;;19.20;99.90;;;;;;4966043;28;21067;-49
2023/07/26 10:22:44;;;;;;;3.10;1.67;;;19.00;99.90;;;;;;4966032;28;20060;-50
2023/07/26 10:25:11;;;;;;;5.65;2.17;;;18.90;99.90;;;;;;4966210;28;20053;-48
2023/07/26 10:27:38;;;;;;;3.22;1.77;;;18.80;99.90;;;;;;4965110;28;20429;-50
2023/07/26 10:30:05;;;;;;;2.45;1.90;;;18.90;99.90;;;;;;4965405;28;20150;-48
2023/07/26 10:32:31;;;;;;;2.15;1.67;;;19.00;99.90;;;;;;4965375;28;20242;-48
2023/07/26 10:34:58;;;;;;;2.75;1.80;;;19.10;99.90;;;;;;4967004;28;20473;-49
2023/07/26 10:37:33;;;;;;;3.75;2.00;;;19.20;99.90;;;;;;4967684;28;20051;-48
2023/07/26 10:40:04;;;;;;;2.60;2.08;;;19.20;99.90;;;;;;4960642;28;20061;-48
2023/07/26 10:42:30;;;;;;;1.95;1.75;;;19.20;99.90;;;;;;4967217;28;20046;-52
2023/07/26 10:45:03;;;;;;;3.53;1.95;;;19.20;99.90;;;;;;4942237;28;20334;-49
2023/07/26 10:47:29;;;;;;;;;;;19.30;99.90;;;;;;4966370;28;21152;-50
2023/07/26 10:49:57;;;;;;;3.50;1.60;;;19.30;99.90;;;;;;4968552;28;19930;-48
2023/07/26 10:52:35;;;;;;;2.80;1.80;;;19.20;99.90;;;;;;4969817;28;20349;-49
2023/07/26 10:55:18;;;;;;;3.40;2.00;;;19.00;99.90;;;;;;4967997;28;20412;-49
2023/07/26 10:57:50;;;;;;;6.15;2.28;;;18.80;99.90;;;;;;4965973;28;20401;-49
2023/07/26 11:00:23;;;;;;;4.30;2.25;;;18.50;99.90;;;;;;4969456;28;20638;-48
2023/07/26 11:02:58;;;;;;;2.92;1.90;;;18.10;99.90;;;;;;4965957;28;20050;-49
2023/07/26 11:05:25;;;;;;;4.15;1.50;;;17.70;99.90;;;;;;4966550;28;20050;-48
2023/07/26 11:07:53;;;;;;;5.38;2.15;;;17.30;99.90;;;;;;4966925;28;20045;-49
2023/07/26 11:10:30;;;;;;;2.15;1.65;;;17.10;99.90;;;;;;4970764;28;20047;-49
2023/07/26 11:13:16;;;;;;;3.28;1.45;;;17.00;99.90;;;;;;4967276;28;20084;-49
2023/07/26 11:15:43;;;;;;;2.50;1.65;;;16.90;99.90;;;;;;4966250;28;20056;-49
2023/07/26 11:18:10;;;;;;;2.10;0.85;;;16.80;99.90;;;;;;4967228;28;20161;-48
2023/07/26 11:20:43;;;;;;;1.63;0.82;;;16.80;99.90;;;;;;4969290;28;20065;-50
2023/07/26 11:23:18;;;;;;;;;;;16.60;99.90;;;;;;4968022;28;20133;-50
2023/07/26 11:25:46;;;;;;;3.40;1.23;;;16.50;99.90;;;;;;4966819;28;19921;-49
2023/07/26 11:28:11;;;;;;;1.15;0.90;;;16.40;99.90;;;;;;4967798;28;20057;-50
2023/07/26 11:30:39;;;;;;;1.48;0.90;;;16.40;99.90;;;;;;4970568;28;20412;-48
2023/07/26 11:33:05;;;;;;;2.92;1.30;;;16.40;99.90;;;;;;4950057;28;20054;-50
2023/07/26 11:35:40;;;;;;;1.45;1.20;;;16.40;99.90;;;;;;4981374;28;20074;-52
2023/07/26 11:38:06;;;;;;;2.92;1.23;;;16.50;99.90;;;;;;4966610;28;20407;-47
2023/07/26 11:40:39;;;;;;;1.98;1.20;;;16.80;99.90;;;;;;4969025;28;20047;-49
2023/07/26 11:43:06;;;;;;;1.80;1.00;;;17.30;99.90;;;;;;4950259;28;20108;-49
2023/07/26 11:45:32;;;;;;;2.80;1.33;;;17.60;99.90;;;;;;4956228;28;20720;-48
2023/07/26 11:47:58;;;;;;;2.40;1.23;;;18.00;99.90;;;;;;4964740;28;20046;-50
2023/07/26 11:50:24;;;;;;;2.15;1.00;;;18.30;99.90;;;;;;4966388;28;20598;-51
2023/07/26 11:53:37;;;;;;;2.67;1.15;;;18.70;99.90;;;;;;4960927;28;20546;-48
2023/07/26 11:56:04;;;;;;;2.17;1.30;;;19.10;99.90;;;;;;4941510;28;20061;-50
2023/07/26 11:58:33;;;;;;;3.05;1.20;;;19.50;99.90;;;;;;4969592;28;20378;-50
2023/07/26 12:01:00;;;;;;;2.20;1.35;;;19.80;99.90;;;;;;4966462;28;20043;-48
2023/07/26 12:03:27;;;;;;;4.35;1.20;;;20.00;99.90;;;;;;4972607;28;20073;-49
2023/07/26 12:05:53;;;;;;;1.60;1.20;;;20.20;99.90;;;;;;4976629;28;20413;-49
2023/07/26 12:08:20;;;;;;;4.45;1.30;;;20.60;99.90;;;;;;4972968;28;20716;-49
2023/07/26 12:10:47;;;;;;;2.38;1.05;;;20.90;99.90;;;;;;4975667;28;20113;-49
2023/07/26 12:13:21;;;;;;;3.20;1.20;;;21.30;99.90;;;;;;4973584;28;20086;-49
2023/07/26 12:16:00;;;;;;;3.03;1.30;;;21.70;99.90;;;;;;4972245;28;20102;-51
2023/07/26 12:18:27;;;;;;;2.30;1.20;;;22.00;99.90;;;;;;4974011;28;20097;-53
2023/07/26 12:21:07;;;;;;;2.45;1.30;;;22.20;99.90;;;;;;4944387;28;20126;-50
2023/07/26 12:23:58;;;;;;;2.85;1.30;;;22.10;99.60;;;;;;4967902;28;20065;-51
2023/07/26 12:26:33;;;;;;;2.35;1.20;;;21.70;99.40;;;;;;4957207;28;20236;-49
2023/07/26 12:29:01;;;;;;;2.90;1.65;;;21.40;99.30;;;;;;4974458;28;20040;-50
2023/07/26 12:31:32;;;;;;;4.88;1.50;;;20.90;99.70;;;;;;4967621;28;20125;-49
2023/07/26 12:34:01;;;;;;;2.38;1.60;;;20.70;99.90;;;;;;4972796;28;20595;-48
2023/07/26 12:36:47;;;;;;;2.42;1.50;;;20.50;99.90;;;;;;4973019;28;20068;-49
2023/07/26 12:39:18;;;;;;;2.78;1.45;;;20.40;99.90;;;;;;4973058;28;20044;-50
2023/07/26 12:41:44;;;;;;;3.25;1.40;;;20.30;99.90;;;;;;4973844;28;20051;-50
2023/07/26 12:44:11;;;;;;;4.20;1.60;;;20.20;99.90;;;;;;4969034;28;20137;-50
2023/07/26 12:46:38;;;;;;;2.38;1.35;;;20.10;99.90;;;;;;4956854;28;20046;-49
2023/07/26 12:49:08;;;;;;;5.72;1.90;;;19.90;99.90;;;;;;4963841;28;20061;-49